Time;durP1;ratioP1;P1;durP2;ratioP2;P2;SDS_P1;SDS_P2;PMS_P1;PMS_P2;Temp;Humidity;BMP_temperature;BMP_pressure;BME280_temperature;BME280_humidity;BME280_pressure;Samples;Min_cycle;Max_cycle;Signal;HPM_P1;HPM_P2
2021/10/25 00:01:53;;;;;;;10.27;6.60;;;;;;;3.81;73.78;96877.06;5047013;28;20045;-73
2021/10/25 00:04:20;;;;;;;9.63;5.95;;;;;;;3.79;74.00;96878.38;5047213;28;20059;-71
2021/10/25 00:06:46;;;;;;;11.88;6.47;;;;;;;3.77;74.02;96873.28;5046952;28;20045;-72
2021/10/25 00:09:13;;;;;;;11.52;6.75;;;;;;;3.78;74.10;96879.47;5047396;28;20041;-72
2021/10/25 00:11:39;;;;;;;13.25;7.10;;;;;;;3.73;73.98;96885.63;5046825;28;20056;-73
2021/10/25 00:14:07;;;;;;;16.80;7.35;;;;;;;3.64;74.00;96881.81;5046718;28;20045;-72
2021/10/25 00:16:34;;;;;;;14.80;7.65;;;;;;;3.59;74.22;96879.09;5047218;28;20144;-72
2021/10/25 00:19:00;;;;;;;14.43;7.10;;;;;;;3.55;74.18;96883.34;5046858;28;20055;-72
2021/10/25 00:21:27;;;;;;;14.55;7.70;;;;;;;3.49;74.22;96887.09;5047014;28;20121;-72
2021/10/25 00:23:53;;;;;;;18.63;8.32;;;;;;;3.47;74.31;96891.94;5028390;28;20053;-72
2021/10/25 00:26:20;;;;;;;15.13;8.02;;;;;;;3.46;74.49;96893.00;5027346;28;20543;-72
2021/10/25 00:28:46;;;;;;;14.60;7.80;;;;;;;3.40;74.71;96892.97;5026615;28;20433;-72
2021/10/25 00:31:14;;;;;;;15.75;7.28;;;;;;;3.36;74.74;96886.47;5027056;28;20618;-72
2021/10/25 00:33:41;;;;;;;13.02;6.72;;;;;;;3.37;74.99;96887.28;5024252;28;20679;-72
2021/10/25 00:36:09;;;;;;;11.73;6.50;;;;;;;3.36;75.10;96881.09;5026596;28;20049;-73
2021/10/25 00:38:36;;;;;;;9.77;6.30;;;;;;;3.33;75.19;96887.00;5026936;28;20042;-72
2021/10/25 00:41:03;;;;;;;11.95;7.07;;;;;;;3.33;75.58;96887.00;5026053;28;20049;-71
2021/10/25 00:43:30;;;;;;;11.15;7.40;;;;;;;3.36;75.73;96880.28;5026775;28;20049;-72
2021/10/25 00:45:57;;;;;;;16.50;7.63;;;;;;;3.42;75.89;96881.13;5026213;28;20091;-72
2021/10/25 00:48:25;;;;;;;13.57;6.10;;;;;;;3.47;75.71;96876.59;5026534;28;20502;-72
2021/10/25 00:50:51;;;;;;;15.57;7.65;;;;;;;3.48;75.31;96877.41;5026506;28;20065;-72
2021/10/25 00:53:18;;;;;;;11.23;6.70;;;;;;;3.52;74.53;96881.19;5027627;28;20053;-73
2021/10/25 00:55:45;;;;;;;11.23;5.82;;;;;;;3.47;74.71;96873.91;5025946;28;20041;-72
2021/10/25 00:58:12;;;;;;;10.65;6.22;;;;;;;3.42;74.48;96873.06;5026516;28;20101;-72
2021/10/25 01:00:39;;;;;;;13.50;6.65;;;;;;;3.43;74.43;96867.41;5026470;28;20045;-72
2021/10/25 01:03:06;;;;;;;11.98;6.30;;;;;;;3.44;74.17;96860.13;5025929;28;20045;-72
2021/10/25 01:05:34;;;;;;;12.52;6.30;;;;;;;3.40;74.73;96863.38;5027241;28;20050;-72
2021/10/25 01:08:03;;;;;;;11.50;7.30;;;;;;;3.40;74.99;96862.56;5026358;28;20065;-72
2021/10/25 01:10:30;;;;;;;13.35;6.55;;;;;;;3.39;75.06;96858.22;5026472;28;20046;-72
2021/10/25 01:12:57;;;;;;;13.52;6.85;;;;;;;3.37;74.87;96863.88;5025955;28;20480;-72
2021/10/25 01:15:25;;;;;;;11.45;7.03;;;;;;;3.36;74.68;96851.50;5026791;28;20065;-72
2021/10/25 01:17:54;;;;;;;10.82;6.68;;;;;;;3.37;74.94;96855.78;5026039;28;20049;-73
2021/10/25 01:20:22;;;;;;;17.02;8.38;;;;;;;3.35;74.95;96852.56;5026566;28;20049;-72
2021/10/25 01:22:49;;;;;;;12.25;7.35;;;;;;;3.28;74.55;96854.66;5033781;28;20045;-73
2021/10/25 01:25:15;;;;;;;22.00;10.98;;;;;;;3.21;74.21;96856.78;5047012;28;20582;-72
2021/10/25 01:27:42;;;;;;;17.02;9.15;;;;;;;3.15;74.42;96852.44;5049991;28;20041;-72
2021/10/25 01:30:09;;;;;;;13.68;6.78;;;;;;;3.10;74.80;96860.47;5049540;28;20049;-72
2021/10/25 01:32:36;;;;;;;11.57;6.93;;;;;;;3.06;74.98;96853.97;5050381;28;20041;-74
2021/10/25 01:35:02;;;;;;;12.25;6.72;;;;;;;3.09;75.23;96858.84;5049114;28;20053;-74
2021/10/25 01:37:30;;;;;;;11.23;5.90;;;;;;;3.09;75.19;96856.16;5050453;28;20143;-72
2021/10/25 01:39:57;;;;;;;10.57;5.78;;;;;;;3.11;75.19;96859.38;5049557;28;20052;-73
2021/10/25 01:42:23;;;;;;;8.38;5.28;;;;;;;3.09;75.16;96848.06;5049425;28;20052;-72
2021/10/25 01:44:50;;;;;;;9.10;5.50;;;;;;;3.03;75.02;96857.19;5048937;28;20077;-72
2021/10/25 01:47:16;;;;;;;11.15;5.55;;;;;;;2.99;75.22;96848.00;5048951;28;20412;-72
2021/10/25 01:49:43;;;;;;;8.73;5.15;;;;;;;2.96;75.46;96845.81;5049678;28;20128;-72
2021/10/25 01:52:10;;;;;;;11.38;5.38;;;;;;;2.93;75.38;96849.03;5049152;28;20053;-72
2021/10/25 01:54:38;;;;;;;8.18;5.07;;;;;;;2.91;75.36;96856.53;5050260;28;20152;-72
2021/10/25 01:57:07;;;;;;;10.70;6.03;;;;;;;2.88;75.57;96861.38;5048450;28;20404;-71
2021/10/25 01:59:34;;;;;;;8.77;5.68;;;;;;;2.94;76.01;96850.66;5049775;28;20051;-72
2021/10/25 02:02:00;;;;;;;8.75;4.93;;;;;;;2.93;76.01;96851.72;5048760;28;20041;-72
2021/10/25 02:04:27;;;;;;;9.68;5.00;;;;;;;2.97;76.35;96858.19;5049825;28;20052;-72
2021/10/25 02:06:54;;;;;;;7.75;4.82;;;;;;;3.00;76.39;96855.81;5048638;28;20049;-72
2021/10/25 02:09:21;;;;;;;8.50;5.13;;;;;;;3.05;76.16;96852.34;5048991;28;20056;-72
2021/10/25 02:11:49;;;;;;;11.93;6.22;;;;;;;3.10;74.93;96850.50;5048841;28;20072;-73
2021/10/25 02:14:16;;;;;;;11.43;5.60;;;;;;;3.03;74.39;96849.91;5048514;28;20049;-72
2021/10/25 02:16:43;;;;;;;9.88;5.07;;;;;;;3.00;75.07;96849.63;5048966;28;20049;-71
2021/10/25 02:19:10;;;;;;;8.05;5.15;;;;;;;2.98;75.44;96849.06;5048123;28;20045;-73
2021/10/25 02:21:37;;;;;;;7.93;4.88;;;;;;;2.96;75.56;96845.81;5049588;28;20420;-73
2021/10/25 02:24:05;;;;;;;10.10;5.80;;;;;;;2.95;75.49;96836.94;5047880;28;20151;-71
2021/10/25 02:26:31;;;;;;;8.90;4.88;;;;;;;2.92;75.35;96837.44;5049392;28;20438;-72
2021/10/25 02:28:59;;;;;;;9.48;5.90;;;;;;;2.96;75.74;96835.84;5048478;28;20048;-72
2021/10/25 02:31:26;;;;;;;8.75;4.90;;;;;;;2.98;75.92;96830.25;5048241;28;20068;-72
2021/10/25 02:33:52;;;;;;;11.50;5.60;;;;;;;2.97;75.80;96833.97;5048837;28;20048;-72
2021/10/25 02:36:19;;;;;;;9.60;4.95;;;;;;;2.94;75.42;96839.88;5048589;28;20052;-72
2021/10/25 02:38:45;;;;;;;8.88;4.80;;;;;;;2.86;74.89;96839.28;5048595;28;20045;-72
2021/10/25 02:41:12;;;;;;;8.20;5.00;;;;;;;2.84;75.16;96833.34;5047911;28;20115;-72
2021/10/25 02:43:39;;;;;;;7.72;5.13;;;;;;;2.86;75.27;96828.50;5049143;28;20527;-72
2021/10/25 02:46:07;;;;;;;10.65;5.15;;;;;;;2.87;75.40;96824.78;5047381;28;20464;-71
2021/10/25 02:48:34;;;;;;;8.07;5.22;;;;;;;2.87;75.35;96827.47;5049011;28;20504;-72
2021/10/25 02:51:01;;;;;;;8.50;5.13;;;;;;;2.85;74.99;96837.66;5047972;28;20059;-72
2021/10/25 02:53:27;;;;;;;7.85;5.30;;;;;;;2.80;75.03;96834.94;5048160;28;20072;-72
2021/10/25 02:55:54;;;;;;;8.88;5.43;;;;;;;2.83;75.80;96831.75;5048037;28;20056;-72
2021/10/25 02:58:20;;;;;;;10.65;5.13;;;;;;;2.85;75.71;96831.47;5047800;28;20048;-72
2021/10/25 03:00:47;;;;;;;7.75;5.10;;;;;;;2.84;75.71;96830.66;5048286;28;20049;-72
2021/10/25 03:03:15;;;;;;;7.93;5.32;;;;;;;2.85;75.54;96843.03;5047280;28;20049;-72
2021/10/25 03:05:41;;;;;;;8.10;5.25;;;;;;;2.83;75.46;96834.44;5048585;28;20520;-72
2021/10/25 03:08:08;;;;;;;9.65;5.70;;;;;;;2.85;75.28;96840.34;5047374;28;20056;-73
2021/10/25 03:10:34;;;;;;;9.27;5.15;;;;;;;2.84;75.68;96840.63;5048578;28;20049;-72
2021/10/25 03:13:01;;;;;;;9.23;5.35;;;;;;;2.84;75.70;96832.53;5047193;28;20049;-72
2021/10/25 03:15:27;;;;;;;10.07;5.22;;;;;;;2.87;75.77;96835.53;5048223;28;20642;-72
2021/10/25 03:17:54;;;;;;;11.05;5.43;;;;;;;2.87;75.69;96837.38;5047280;28;20045;-72
2021/10/25 03:20:22;;;;;;;11.23;5.95;;;;;;;2.87;75.68;96846.31;5047935;28;20049;-72
2021/10/25 03:22:49;;;;;;;10.50;5.55;;;;;;;2.92;75.83;96837.44;5041884;28;20389;-72
2021/10/25 03:25:15;;;;;;;10.13;5.22;;;;;;;2.92;75.94;96842.81;5027579;28;20057;-71
2021/10/25 03:27:42;;;;;;;8.23;4.97;;;;;;;2.92;75.53;96833.94;5027726;28;20471;-72
2021/10/25 03:30:10;;;;;;;7.85;4.90;;;;;;;2.91;75.27;96840.38;5027301;28;20049;-71
2021/10/25 03:32:37;;;;;;;10.32;5.75;;;;;;;2.84;75.38;96841.41;5028134;28;20071;-72
2021/10/25 03:35:04;;;;;;;11.50;5.10;;;;;;;2.81;74.99;96846.50;5026849;28;20076;-72
2021/10/25 03:37:34;;;;;;;10.20;5.28;;;;;;;2.75;75.35;96842.94;5028068;28;20056;-72
2021/10/25 03:40:01;;;;;;;7.50;4.68;;;;;;;2.73;75.40;96838.91;5027030;28;20123;-72
2021/10/25 03:42:30;;;;;;;8.05;5.22;;;;;;;2.73;75.43;96839.72;5027313;28;20126;-72
2021/10/25 03:45:00;;;;;;;8.77;5.40;;;;;;;2.73;75.54;96849.66;5027414;28;20140;-73
2021/10/25 03:47:30;;;;;;;9.18;5.43;;;;;;;2.74;75.90;96849.41;5027249;28;20061;-72
2021/10/25 03:50:04;;;;;;;9.35;5.32;;;;;;;2.76;75.93;96849.13;5028165;28;20132;-72
2021/10/25 03:52:36;;;;;;;9.90;5.72;;;;;;;2.78;76.23;96842.44;5031757;28;20055;-72
2021/10/25 03:55:09;;;;;;;11.20;6.60;;;;;;;2.81;76.20;96851.88;5047312;28;20053;-71
2021/10/25 04:27:48;;;;;;;7.93;4.22;;;;;;;2.98;74.21;96819.47;5037592;28;20059;-74
2021/10/25 04:30:16;;;;;;;8.02;5.10;;;;;;;2.92;73.98;96823.19;5046826;28;20057;-72
2021/10/25 04:32:43;;;;;;;9.25;5.47;;;;;;;2.86;74.39;96815.06;5044933;28;20528;-72
2021/10/25 04:35:09;;;;;;;16.08;7.90;;;;;;;2.84;75.83;96822.59;5047020;28;20052;-71
2021/10/25 04:37:36;;;;;;;13.95;7.10;;;;;;;2.87;76.55;96819.41;5046459;28;20596;-71
2021/10/25 04:40:05;;;;;;;41.13;16.85;;;;;;;2.88;77.16;96815.63;5046476;28;20053;-73
2021/10/25 04:42:33;;;;;;;33.85;12.85;;;;;;;2.91;77.23;96813.50;5046456;28;20052;-71
2021/10/25 04:45:00;;;;;;;33.83;13.57;;;;;;;2.89;77.26;96816.44;5046653;28;20045;-72
2021/10/25 04:47:27;;;;;;;45.97;17.23;;;;;;;2.88;77.05;96810.25;5046276;28;20646;-71
2021/10/25 04:49:54;;;;;;;40.40;18.40;;;;;;;2.89;77.10;96811.06;5046641;28;20530;-71
2021/10/25 04:52:20;;;;;;;30.45;12.75;;;;;;;2.92;76.98;96815.09;5046174;28;20504;-71
2021/10/25 04:54:47;;;;;;;23.90;10.48;;;;;;;2.92;76.96;96809.72;5046384;28;20182;-71
2021/10/25 04:57:15;;;;;;;19.95;8.65;;;;;;;2.93;77.06;96822.13;5046687;28;20064;-71
2021/10/25 04:59:41;;;;;;;12.32;7.18;;;;;;;2.94;76.72;96813.00;5046304;28;20052;-72
2021/10/25 05:02:08;;;;;;;13.45;7.07;;;;;;;2.92;76.76;96809.72;5050775;28;20045;-71
2021/10/25 05:04:34;;;;;;;13.63;6.65;;;;;;;2.93;76.69;96822.13;5049848;28;20056;-71
2021/10/25 05:07:01;;;;;;;11.32;6.32;;;;;;;2.94;76.64;96823.75;5050560;28;20056;-72
2021/10/25 05:09:27;;;;;;;9.98;5.97;;;;;;;2.93;76.54;96817.56;5050062;28;20045;-72
2021/10/25 05:11:54;;;;;;;9.68;5.65;;;;;;;2.97;76.67;96823.22;5050589;28;20045;-72
2021/10/25 05:14:21;;;;;;;12.48;6.82;;;;;;;2.99;76.58;96821.09;5049676;28;20045;-71
2021/10/25 05:16:48;;;;;;;12.55;6.18;;;;;;;2.99;76.42;96821.09;5049664;28;20048;-71
2021/10/25 05:19:14;;;;;;;11.93;6.25;;;;;;;3.01;76.48;96821.63;5050197;28;20049;-71
2021/10/25 05:21:41;;;;;;;11.13;6.07;;;;;;;3.02;76.25;96821.38;5049894;28;20049;-72
2021/10/25 05:24:08;;;;;;;9.57;5.82;;;;;;;3.02;75.99;96817.88;5049874;28;20057;-72
2021/10/25 05:26:35;;;;;;;11.02;6.88;;;;;;;3.05;76.07;96820.06;5049715;28;20049;-71
2021/10/25 05:29:01;;;;;;;12.35;6.38;;;;;;;3.07;75.95;96821.41;5049957;28;20053;-70
2021/10/25 05:31:29;;;;;;;12.10;6.50;;;;;;;3.06;75.79;96821.69;5049668;28;20644;-72
2021/10/25 05:33:57;;;;;;;9.45;5.40;;;;;;;3.04;75.94;96815.75;5050225;28;20061;-71
2021/10/25 05:36:23;;;;;;;9.57;5.80;;;;;;;3.05;75.95;96823.56;5049839;28;20049;-71
2021/10/25 05:38:51;;;;;;;11.02;6.25;;;;;;;3.10;75.79;96807.44;5049300;28;20076;-71
2021/10/25 05:41:18;;;;;;;9.63;5.75;;;;;;;3.13;75.86;96803.41;5049528;28;20075;-72
2021/10/25 05:43:44;;;;;;;10.63;6.22;;;;;;;3.14;76.07;96808.56;5049088;28;20128;-72
2021/10/25 05:46:11;;;;;;;11.10;6.28;;;;;;;3.14;75.91;96799.69;5049865;28;20056;-72
2021/10/25 05:48:40;;;;;;;12.55;6.55;;;;;;;3.14;75.93;96805.88;5049387;28;20049;-72
2021/10/25 05:51:07;;;;;;;11.18;6.32;;;;;;;3.16;75.61;96805.59;5049570;28;20053;-72
2021/10/25 05:53:34;;;;;;;10.40;5.90;;;;;;;3.12;75.50;96805.31;5048968;28;20139;-72
2021/10/25 05:56:00;;;;;;;12.00;5.90;;;;;;;3.17;75.43;96806.41;5050436;28;20057;-72
2021/10/25 05:58:27;;;;;;;9.30;5.28;;;;;;;3.20;74.84;96801.31;5050063;28;20044;-73
2021/10/25 06:00:55;;;;;;;10.90;6.25;;;;;;;3.22;74.05;96809.94;5049416;28;20056;-73
2021/10/25 06:03:23;;;;;;;9.45;5.63;;;;;;;3.18;74.26;96814.22;5049215;28;20132;-73
2021/10/25 06:05:51;;;;;;;7.88;5.20;;;;;;;3.21;74.53;96808.31;5048988;28;20504;-73
2021/10/25 06:08:18;;;;;;;8.63;5.38;;;;;;;3.24;74.87;96810.50;5049586;28;20099;-73
2021/10/25 06:10:45;;;;;;;15.60;6.47;;;;;;;3.25;75.35;96819.38;5048540;28;20041;-73
2021/10/25 06:13:19;;;;;;;17.17;6.22;;;;;;;3.28;75.74;96822.34;5049666;28;20044;-73
2021/10/25 06:15:55;;;;;;;8.77;5.60;;;;;;;3.35;75.44;96814.88;5048999;28;20045;-73
2021/10/25 06:18:21;;;;;;;10.60;6.05;;;;;;;3.34;75.47;96818.66;5048760;28;20142;-73
2021/10/25 06:20:48;;;;;;;13.98;6.03;;;;;;;3.36;75.57;96811.09;5047372;28;20072;-73
2021/10/25 06:23:17;;;;;;;14.10;7.00;;;;;;;3.42;75.62;96819.22;5046603;28;20060;-73
2021/10/25 06:25:45;;;;;;;10.65;6.10;;;;;;;3.44;75.98;96814.38;5047625;28;20049;-73
2021/10/25 06:28:13;;;;;;;12.27;6.53;;;;;;;3.48;76.11;96807.41;5046967;28;20614;-73
2021/10/25 06:30:40;;;;;;;11.02;7.10;;;;;;;3.56;75.92;96810.41;5048332;28;20065;-73
2021/10/25 06:33:08;;;;;;;11.35;6.60;;;;;;;3.59;75.75;96809.06;5046995;28;20053;-73
2021/10/25 06:35:34;;;;;;;11.00;6.18;;;;;;;3.66;75.97;96809.66;5048484;28;20558;-72
2021/10/25 06:38:06;;;;;;;13.52;6.20;;;;;;;3.73;75.92;96817.50;5048549;28;20083;-73
2021/10/25 06:40:33;;;;;;;9.85;5.80;;;;;;;3.77;75.43;96810.50;5047472;28;20129;-73
2021/10/25 06:43:00;;;;;;;10.00;6.15;;;;;;;3.83;75.26;96815.66;5048794;28;20056;-72
2021/10/25 06:45:26;;;;;;;11.50;5.13;;;;;;;3.95;74.43;96817.31;5048117;28;20060;-73
2021/10/25 06:47:54;;;;;;;10.57;5.40;;;;;;;3.98;75.02;96822.19;5049084;28;20060;-73
2021/10/25 06:50:23;;;;;;;8.00;5.13;;;;;;;3.99;74.93;96821.91;5047677;28;20053;-73
2021/10/25 06:52:51;;;;;;;8.68;4.93;;;;;;;3.99;75.05;96824.59;5048793;28;20725;-73
2021/10/25 06:55:18;;;;;;;8.88;5.80;;;;;;;4.04;74.75;96831.91;5047750;28;20064;-73
2021/10/25 06:57:46;;;;;;;9.95;5.88;;;;;;;4.05;74.50;96833.50;5049163;28;20065;-72
2021/10/25 07:00:14;;;;;;;9.80;5.50;;;;;;;4.12;74.42;96834.06;5047433;28;20049;-72
2021/10/25 07:02:40;;;;;;;8.98;5.50;;;;;;;4.14;74.08;96826.53;5048774;28;20053;-73
2021/10/25 07:05:08;;;;;;;8.85;5.20;;;;;;;4.27;74.23;96826.03;5047769;28;20049;-72
2021/10/25 07:07:35;;;;;;;8.95;5.07;;;;;;;4.27;72.89;96831.41;5048530;28;20048;-74
2021/10/25 07:10:03;;;;;;;10.73;5.28;;;;;;;4.24;72.46;96831.97;5047892;28;20049;-72
2021/10/25 07:12:30;;;;;;;11.93;5.10;;;;;;;4.19;72.94;96832.75;5047809;28;20597;-72
2021/10/25 07:14:58;;;;;;;13.32;5.80;;;;;;;4.18;73.52;96831.13;5048447;28;20049;-73
2021/10/25 07:17:31;;;;;;;11.93;6.22;;;;;;;4.20;74.07;96833.56;5046880;28;20048;-73
2021/10/25 08:01:29;;;;;;;7.28;5.00;;;;;;;5.55;71.97;96843.06;5046818;28;20060;-73
2021/10/25 08:06:55;;;;;;;11.10;5.80;;;;;;;5.78;71.24;96854.34;5046700;28;20059;-73
2021/10/25 08:09:35;;;;;;;7.57;5.28;;;;;;;5.91;70.71;96860.00;5047024;28;20052;-72
2021/10/25 08:12:04;;;;;;;11.27;5.75;;;;;;;6.01;71.25;96857.28;5047242;28;20044;-70
2021/10/25 08:14:33;;;;;;;8.95;5.88;;;;;;;6.12;71.70;96855.34;5047273;28;20515;-73
2021/10/25 08:17:00;;;;;;;8.77;5.50;;;;;;;6.27;71.14;96859.88;5047443;28;20068;-73
2021/10/25 08:19:30;;;;;;;8.77;4.70;;;;;;;6.39;70.94;96857.63;5046760;28;20041;-73
2021/10/25 08:21:59;;;;;;;9.13;5.07;;;;;;;6.48;70.25;96847.84;5047691;28;20052;-73
2021/10/25 08:24:27;;;;;;;13.02;4.05;;;;;;;6.53;67.99;96849.72;5045950;28;20044;-73
2021/10/25 08:26:54;;;;;;;8.52;4.57;;;;;;;6.73;69.66;96846.06;5047681;28;20076;-74
2021/10/25 08:29:22;;;;;;;10.05;4.43;;;;;;;6.90;69.70;96848.41;5046765;28;21431;-73
2021/10/25 08:31:55;;;;;;;11.75;4.55;;;;;;;7.04;69.78;96844.75;5047152;28;20041;-73
2021/10/25 08:34:31;;;;;;;6.60;4.15;;;;;;;7.17;66.89;96847.91;5048760;28;20049;-73
2021/10/25 08:39:47;;;;;;;6.57;3.83;;;;;;;7.41;67.68;96848.75;5051576;28;20416;-73
2021/10/25 08:42:14;;;;;;;7.32;3.90;;;;;;;7.59;66.96;96850.75;5050551;28;20447;-74
2021/10/25 08:44:41;;;;;;;8.13;3.97;;;;;;;7.67;67.04;96852.03;5051564;28;20068;-74
2021/10/25 08:47:08;;;;;;;8.65;4.25;;;;;;;7.70;66.80;96851.47;5050378;28;20049;-73
2021/10/25 08:49:35;;;;;;;6.60;3.65;;;;;;;7.82;67.48;96843.72;5051317;28;20049;-73
2021/10/25 08:52:03;;;;;;;7.00;4.07;;;;;;;7.93;67.04;96836.28;5050731;28;20049;-71
2021/10/25 08:54:31;;;;;;;11.75;4.43;;;;;;;8.02;66.94;96837.28;5050606;28;20037;-73
2021/10/25 08:56:59;;;;;;;7.80;3.25;;;;;;;8.08;66.57;96846.16;5051306;28;20049;-74
2021/10/25 08:59:25;;;;;;;7.80;3.67;;;;;;;8.15;65.52;96837.69;5049685;28;20560;-74
2021/10/25 09:01:52;;;;;;;7.25;3.70;;;;;;;8.23;63.78;96829.69;5051796;28;20048;-73
2021/10/25 09:04:19;;;;;;;7.53;4.28;;;;;;;8.33;63.60;96828.75;5049760;28;20451;-74
2021/10/25 09:06:50;;;;;;;8.00;3.92;;;;;;;8.35;63.70;96829.25;5051593;28;20095;-75
2021/10/25 09:09:19;;;;;;;8.50;4.63;;;;;;;8.39;64.02;96830.31;5049999;28;20072;-74
2021/10/25 09:11:58;;;;;;;6.60;4.25;;;;;;;8.43;64.42;96827.84;5050908;28;20041;-74
2021/10/25 09:14:25;;;;;;;6.50;3.63;;;;;;;8.46;63.23;96835.41;5050635;28;20041;-73
2021/10/25 09:16:56;;;;;;;5.93;3.95;;;;;;;8.44;62.81;96838.41;5050175;28;20095;-73
2021/10/25 09:19:22;;;;;;;6.55;3.58;;;;;;;8.53;63.40;96839.38;5050695;28;20052;-73
2021/10/25 09:21:50;;;;;;;6.05;3.92;;;;;;;8.59;64.07;96846.34;5050323;28;20064;-73
2021/10/25 09:24:21;;;;;;;9.15;4.25;;;;;;;8.71;64.38;96842.38;5050538;28;20056;-74
2021/10/25 09:27:00;;;;;;;7.60;4.53;;;;;;;8.76;64.32;96845.00;5050338;28;20041;-74
2021/10/25 09:29:31;;;;;;;9.10;4.15;;;;;;;8.71;63.96;96836.94;5050305;28;20127;-73
2021/10/25 09:32:04;;;;;;;7.95;4.30;;;;;;;8.70;64.54;96840.75;5050562;28;20060;-73
2021/10/25 09:34:34;;;;;;;;;;;;;;;8.76;65.05;96828.72;5050572;28;20096;-73
2021/10/25 09:37:05;;;;;;;9.23;4.03;;;;;;;8.86;65.23;96834.81;5050828;28;19947;-74
2021/10/25 09:39:45;;;;;;;8.25;4.32;;;;;;;8.88;63.75;96845.38;5049472;28;20056;-73
2021/10/25 09:50:39;;;;;;;8.93;4.03;;;;;;;9.32;60.92;96841.41;5050862;28;20052;-73
2021/10/25 09:53:08;;;;;;;7.30;4.03;;;;;;;9.41;61.13;96834.19;5049071;28;20503;-73
2021/10/25 09:55:43;;;;;;;7.57;4.20;;;;;;;9.61;60.98;96833.84;5050846;28;20736;-74
2021/10/25 09:58:17;;;;;;;8.65;4.53;;;;;;;9.77;61.03;96826.19;5049133;28;20053;-72
2021/10/25 10:00:44;;;;;;;6.75;4.28;;;;;;;9.82;60.67;96836.19;5050215;28;20076;-73
2021/10/25 10:03:12;;;;;;;6.10;4.43;;;;;;;9.84;59.70;96831.25;5049130;28;20110;-73
2021/10/25 10:05:39;;;;;;;8.70;5.10;;;;;;;9.88;60.27;96826.81;5049965;28;20396;-74
2021/10/25 10:08:07;;;;;;;8.90;5.35;;;;;;;9.88;60.49;96821.38;5049714;28;20534;-73
2021/10/25 10:10:34;;;;;;;9.65;4.90;;;;;;;9.94;60.50;96826.41;5049441;28;20052;-73
2021/10/25 10:13:03;;;;;;;10.45;5.53;;;;;;;9.98;61.02;96831.25;5050344;28;20049;-74
2021/10/25 10:15:31;;;;;;;9.15;5.32;;;;;;;9.99;61.10;96827.41;5049413;28;20045;-74
2021/10/25 10:18:01;;;;;;;8.10;4.60;;;;;;;10.04;61.08;96819.97;5049638;28;20051;-74
2021/10/25 10:20:30;;;;;;;8.75;5.03;;;;;;;10.08;61.20;96823.69;5049297;28;20049;-74
2021/10/25 10:23:00;;;;;;;12.43;5.38;;;;;;;10.08;61.02;96820.16;5049660;28;20523;-74
2021/10/25 10:25:29;;;;;;;8.65;5.32;;;;;;;10.20;61.66;96817.72;5049335;28;20504;-74
2021/10/25 10:28:08;;;;;;;7.80;5.32;;;;;;;10.28;61.66;96818.94;5049324;28;20052;-74
2021/10/25 10:30:49;;;;;;;11.55;6.05;;;;;;;10.28;62.22;96808.06;5049659;28;20052;-74
2021/10/25 10:33:16;;;;;;;10.65;6.07;;;;;;;10.33;62.67;96799.78;5048459;28;20081;-74
2021/10/25 10:35:46;;;;;;;11.88;5.45;;;;;;;10.35;63.72;96797.59;5049765;28;20044;-74
2021/10/25 10:38:12;;;;;;;11.30;5.60;;;;;;;10.40;63.38;96792.03;5048500;28;20056;-73
2021/10/25 10:40:41;;;;;;;9.73;5.38;;;;;;;10.57;63.88;96789.47;5049147;28;20504;-74
2021/10/25 10:43:22;;;;;;;9.07;5.05;;;;;;;10.70;62.54;96788.63;5048797;28;20424;-73
2021/10/25 10:45:58;;;;;;;11.95;5.43;;;;;;;10.78;61.60;96780.81;5048904;28;20053;-73
2021/10/25 10:48:26;;;;;;;8.10;4.85;;;;;;;10.81;61.24;96788.38;5049244;28;20045;-73
2021/10/25 10:51:03;;;;;;;9.05;4.95;;;;;;;10.81;60.82;96788.38;5048568;28;20056;-74
2021/10/25 10:53:33;;;;;;;8.80;4.97;;;;;;;10.82;61.17;96779.09;5049193;28;20127;-73
2021/10/25 10:56:03;;;;;;;6.85;4.68;;;;;;;10.73;60.27;96784.47;5048351;28;20111;-73
2021/10/25 10:58:47;;;;;;;8.90;5.03;;;;;;;10.70;61.15;96785.06;5048029;28;20060;-73
2021/10/25 11:01:14;;;;;;;9.82;4.90;;;;;;;10.73;60.51;96784.47;5048510;28;20140;-72
2021/10/25 11:03:41;;;;;;;9.75;4.93;;;;;;;10.76;59.96;96781.13;5048596;28;20060;-73
2021/10/25 11:06:11;;;;;;;9.82;5.28;;;;;;;10.76;60.86;96781.13;5048674;28;20137;-73
2021/10/25 11:08:39;;;;;;;7.65;5.03;;;;;;;10.80;61.48;96778.56;5048122;28;20045;-73
2021/10/25 11:11:08;;;;;;;7.43;5.10;;;;;;;10.82;61.52;96790.00;5048813;28;20127;-73
2021/10/25 11:13:41;;;;;;;8.40;4.82;;;;;;;10.90;61.11;96781.88;5048103;28;20077;-73
2021/10/25 11:16:11;;;;;;;8.55;4.88;;;;;;;10.90;61.58;96770.97;5048461;28;20132;-72
2021/10/25 11:18:42;;;;;;;7.80;4.72;;;;;;;10.88;61.14;96775.13;5048279;28;20041;-73
2021/10/25 11:21:17;;;;;;;8.13;4.18;;;;;;;10.87;60.88;96776.25;5047935;28;20049;-73
2021/10/25 11:23:47;;;;;;;10.32;5.10;;;;;;;10.93;61.94;96767.63;5048578;28;20045;-73
2021/10/25 11:26:19;;;;;;;6.50;4.55;;;;;;;10.97;62.04;96765.09;5047657;28;20052;-73
2021/10/25 11:29:08;;;;;;;8.93;5.07;;;;;;;10.95;61.98;96765.38;5048843;28;20076;-73
2021/10/25 11:31:38;;;;;;;10.00;5.47;;;;;;;10.98;61.68;96766.72;5048135;28;20079;-73
2021/10/25 11:34:10;;;;;;;9.40;6.05;;;;;;;10.97;60.87;96751.47;5047924;28;20159;-73
2021/10/25 11:36:37;;;;;;;9.95;6.13;;;;;;;11.02;61.44;96750.56;5048196;28;20040;-74
2021/10/25 11:39:08;;;;;;;12.00;7.30;;;;;;;11.02;61.24;96745.91;5047600;28;20045;-75
2021/10/25 11:41:46;;;;;;;12.32;8.35;;;;;;;11.01;60.67;96755.16;5048617;28;20044;-75
2021/10/25 11:44:15;;;;;;;9.50;6.43;;;;;;;10.96;60.82;96750.69;5046960;28;20072;-74
2021/10/25 11:46:41;;;;;;;11.55;6.50;;;;;;;10.94;60.08;96743.91;5049000;28;20049;-73
2021/10/25 11:49:08;;;;;;;11.52;7.05;;;;;;;10.96;61.14;96747.13;5046879;28;20045;-73
2021/10/25 11:51:34;;;;;;;12.93;7.25;;;;;;;11.07;60.01;96748.50;5048524;28;20053;-73
2021/10/25 11:54:02;;;;;;;11.65;7.88;;;;;;;11.09;61.10;96743.53;5047567;28;20056;-73
2021/10/25 11:56:29;;;;;;;11.70;8.23;;;;;;;11.19;60.30;96739.75;5047961;28;20049;-73
2021/10/25 11:58:57;;;;;;;13.27;7.75;;;;;;;11.31;60.88;96742.69;5047631;28;20060;-73
2021/10/25 12:01:26;;;;;;;9.88;6.90;;;;;;;11.40;59.01;96740.00;5047433;28;20055;-75
2021/10/25 12:03:53;;;;;;;13.85;8.57;;;;;;;11.40;59.46;96734.56;5047972;28;20056;-74
2021/10/25 12:06:22;;;;;;;12.82;8.05;;;;;;;11.37;59.87;96735.97;5046727;28;20044;-74
2021/10/25 12:08:59;;;;;;;12.95;8.38;;;;;;;11.46;60.55;96734.09;5047955;28;20053;-73
2021/10/25 12:11:36;;;;;;;12.05;8.07;;;;;;;11.48;59.41;96728.31;5046866;28;20041;-74
2021/10/25 12:14:03;;;;;;;10.70;7.72;;;;;;;11.41;59.19;96725.25;5047383;28;20060;-73
2021/10/25 12:16:32;;;;;;;11.32;7.72;;;;;;;11.36;59.90;96722.66;5047661;28;20041;-74
2021/10/25 12:18:59;;;;;;;11.02;7.10;;;;;;;11.44;61.37;96730.09;5047008;28;20065;-74
2021/10/25 12:21:34;;;;;;;10.18;6.60;;;;;;;11.46;60.65;96725.13;5047020;28;20044;-74
2021/10/25 12:24:04;;;;;;;11.57;6.80;;;;;;;11.47;60.05;96718.53;5046635;28;20067;-74
2021/10/25 12:26:31;;;;;;;17.08;7.03;;;;;;;11.47;61.28;96729.44;5047109;28;20049;-74
2021/10/25 12:28:58;;;;;;;13.27;7.32;;;;;;;11.44;61.19;96721.91;5046720;28;20053;-74
2021/10/25 12:31:27;;;;;;;14.95;7.10;;;;;;;11.47;60.86;96710.34;5046791;28;20508;-74
2021/10/25 12:34:02;;;;;;;10.68;7.03;;;;;;;11.50;61.78;96705.09;5046733;28;20048;-74
2021/10/25 12:36:34;;;;;;;14.43;6.68;;;;;;;11.51;61.59;96703.16;5046366;28;20045;-74
2021/10/25 12:39:01;;;;;;;11.45;7.70;;;;;;;11.59;61.20;96696.94;5047485;28;20052;-74
2021/10/25 12:41:28;;;;;;;12.45;7.22;;;;;;;11.68;61.20;96696.94;5046620;28;20041;-74
2021/10/25 12:43:57;;;;;;;12.10;8.07;;;;;;;11.74;60.58;96698.41;5047740;28;20148;-75
2021/10/25 12:46:32;;;;;;;12.50;7.93;;;;;;;11.72;60.29;96706.91;5046541;28;20499;-74
2021/10/25 12:48:59;;;;;;;13.75;8.02;;;;;;;11.61;60.41;96697.41;5047805;28;20487;-74
2021/10/25 12:51:36;;;;;;;15.70;8.88;;;;;;;11.65;61.22;96698.41;5046294;28;20045;-74
2021/10/25 12:54:08;;;;;;;17.15;8.60;;;;;;;11.66;61.32;96686.38;5030697;28;20050;-74
2021/10/25 12:56:34;;;;;;;15.95;9.93;;;;;;;11.69;61.03;96693.09;5027105;28;20140;-74
2021/10/25 12:59:02;;;;;;;12.00;8.52;;;;;;;11.68;61.84;96691.50;5027060;28;20050;-75
2021/10/25 13:01:29;;;;;;;15.88;9.25;;;;;;;11.70;60.94;96708.38;5019511;28;20041;-74
2021/10/25 13:03:57;;;;;;;15.15;8.43;;;;;;;11.62;61.49;96709.94;5026129;28;20123;-74
2021/10/25 13:06:27;;;;;;;14.23;8.63;;;;;;;11.64;61.84;96702.25;5026422;28;20053;-74